Time;durP1;ratioP1;P1;durP2;ratioP2;P2;SDS_P1;SDS_P2;PMS_P1;PMS_P2;Temp;Humidity;BMP_temperature;BMP_pressure;BME280_temperature;BME280_humidity;BME280_pressure;Samples;Min_cycle;Max_cycle;Signal;HPM_P1;HPM_P2
2023/08/11 00:01:01;;;;;;;17.05;3.05;;;;;;;16.16;100.00;101423.13;5074209;28;20024;-67
2023/08/11 00:03:26;;;;;;;23.70;3.42;;;;;;;16.19;100.00;101428.94;5075517;28;20079;-66
2023/08/11 00:05:54;;;;;;;22.75;3.08;;;;;;;16.21;100.00;101437.69;5075305;28;20036;-66
2023/08/11 00:08:20;;;;;;;19.75;3.00;;;;;;;16.17;100.00;101431.03;5077092;28;20028;-67
2023/08/11 00:10:45;;;;;;;20.52;3.25;;;;;;;16.12;100.00;101425.44;5075765;28;20122;-66
2023/08/11 00:13:13;;;;;;;28.38;3.83;;;;;;;16.06;100.00;101410.03;5076018;28;20124;-68
2023/08/11 00:15:39;;;;;;;25.20;3.00;;;;;;;16.16;100.00;101437.53;5075315;28;20111;-67
2023/08/11 00:18:05;;;;;;;25.00;3.10;;;;;;;16.09;100.00;101433.19;5076947;28;20054;-67
2023/08/11 00:20:31;;;;;;;21.88;3.28;;;;;;;15.98;100.00;101424.69;5076728;28;20443;-67
2023/08/11 00:22:57;;;;;;;22.15;3.33;;;;;;;16.02;100.00;101429.69;5075430;28;20035;-67
2023/08/11 00:25:23;;;;;;;22.08;3.08;;;;;;;15.97;100.00;101436.63;5077690;28;20024;-67
2023/08/11 00:27:49;;;;;;;17.27;3.78;;;;;;;15.95;100.00;101441.41;5082229;28;20051;-67
2023/08/11 00:30:14;;;;;;;20.08;2.92;;;;;;;15.97;100.00;101431.19;5080362;28;20033;-67
2023/08/11 00:32:40;;;;;;;25.83;3.10;;;;;;;16.04;100.00;101435.75;5062558;28;20369;-67
2023/08/11 00:35:06;;;;;;;23.50;3.67;;;;;;;15.93;100.00;101427.25;5080964;28;20025;-67
2023/08/11 00:37:32;;;;;;;23.15;3.40;;;;;;;15.92;100.00;101439.16;5080617;28;20138;-67
2023/08/11 00:39:58;;;;;;;21.83;3.20;;;;;;;15.89;100.00;101434.19;5059682;28;20075;-67
2023/08/11 00:42:23;;;;;;;20.13;2.80;;;;;;;15.89;100.00;101438.75;5076412;28;20028;-67
2023/08/11 00:44:49;;;;;;;24.83;3.38;;;;;;;15.86;100.00;101431.03;5093528;28;20159;-67
2023/08/11 00:47:15;;;;;;;20.75;3.22;;;;;;;15.82;100.00;101436.06;5085509;28;20390;-66
2023/08/11 00:49:41;;;;;;;27.80;4.00;;;;;;;15.78;100.00;101431.31;5104952;28;20040;-67
2023/08/11 00:52:06;;;;;;;25.10;3.38;;;;;;;15.67;100.00;101430.13;5102060;28;20458;-67
2023/08/11 00:54:33;;;;;;;16.52;3.05;;;;;;;15.67;100.00;101430.13;5099063;28;20035;-67
2023/08/11 00:56:59;;;;;;;22.58;3.45;;;;;;;15.66;100.00;101428.41;5100307;28;20027;-67
2023/08/11 00:59:25;;;;;;;23.13;2.92;;;;;;;15.68;100.00;101437.22;5098675;28;20390;-67
2023/08/11 01:01:51;;;;;;;23.95;3.45;;;;;;;15.60;100.00;101435.56;5098274;28;20028;-66
2023/08/11 01:04:17;;;;;;;23.13;2.90;;;;;;;15.56;100.00;101428.88;5098451;28;20047;-67
2023/08/11 01:07:05;;;;;;;19.45;2.88;;;;;;;15.52;100.00;101423.06;5099982;28;20056;-67
2023/08/11 01:09:47;;;;;;;22.00;2.97;;;;;;;15.49;100.00;101425.38;5099584;28;20032;-66
2023/08/11 01:12:21;;;;;;;20.35;3.30;;;;;;;15.45;100.00;101422.28;5098732;28;20122;-67
2023/08/11 01:14:58;;;;;;;21.73;3.15;;;;;;;15.45;100.00;101422.28;5098166;28;20027;-67
2023/08/11 01:17:24;;;;;;;23.05;3.28;;;;;;;15.31;100.00;101407.13;5097321;28;20090;-67
2023/08/11 01:19:50;;;;;;;21.42;2.97;;;;;;;15.40;100.00;101422.09;5097172;28;20078;-67
2023/08/11 01:22:19;;;;;;;29.88;3.45;;;;;;;15.44;100.00;101431.47;5099102;28;20115;-67
2023/08/11 01:24:45;;;;;;;19.08;3.20;;;;;;;15.45;100.00;101433.13;5099626;28;20044;-67
2023/08/11 01:27:11;;;;;;;21.88;3.30;;;;;;;15.46;100.00;101429.38;5099445;28;20057;-66
2023/08/11 01:29:38;;;;;;;19.70;2.97;;;;;;;15.48;100.00;101426.44;5098922;28;20020;-66
2023/08/11 01:32:04;;;;;;;15.85;2.83;;;;;;;15.45;100.00;101422.28;5097383;28;20035;-67
2023/08/11 01:34:29;;;;;;;15.75;2.75;;;;;;;15.42;100.00;101425.41;5092897;28;20651;-66
2023/08/11 01:37:01;;;;;;;24.77;2.83;;;;;;;15.39;100.00;101423.13;5075678;28;20031;-67
2023/08/11 01:39:31;;;;;;;17.92;3.40;;;;;;;15.44;100.00;101419.78;5074028;28;20052;-67
2023/08/11 01:41:57;;;;;;;22.63;3.08;;;;;;;15.49;100.00;101422.69;5098947;28;20028;-67
2023/08/11 01:44:23;;;;;;;21.30;3.03;;;;;;;15.56;100.00;101423.47;5097740;28;20055;-67
2023/08/11 01:46:50;;;;;;;26.33;4.13;;;;;;;15.62;100.00;101419.06;5099114;28;20060;-66
2023/08/11 01:49:17;;;;;;;22.55;3.22;;;;;;;15.67;100.00;101416.56;5098689;28;20052;-67
2023/08/11 01:51:43;;;;;;;23.30;3.35;;;;;;;15.64;100.00;101398.81;5099646;28;20024;-67
2023/08/11 01:54:09;;;;;;;26.48;3.42;;;;;;;15.72;100.00;101416.72;5108105;28;20503;-67
2023/08/11 01:56:36;;;;;;;27.60;3.50;;;;;;;15.77;100.00;101411.50;5101928;28;20126;-67
2023/08/11 01:59:11;;;;;;;24.58;3.53;;;;;;;15.88;100.00;101409.97;5100987;28;20027;-67
2023/08/11 02:01:38;;;;;;;30.63;4.13;;;;;;;15.90;100.00;101419.56;5103103;28;20028;-67
2023/08/11 02:04:04;;;;;;;27.33;3.42;;;;;;;15.87;100.00;101416.44;5085290;28;20031;-67
2023/08/11 02:06:30;;;;;;;33.17;3.40;;;;;;;16.01;100.00;101414.47;5080476;28;20027;-67
2023/08/11 02:08:55;;;;;;;25.13;3.53;;;;;;;16.07;100.00;101411.69;5083355;28;20024;-69
2023/08/11 02:11:21;;;;;;;24.38;3.65;;;;;;;16.12;100.00;101411.03;5080966;28;20033;-67
2023/08/11 02:13:46;;;;;;;24.45;3.72;;;;;;;16.16;100.00;101418.53;5082958;28;20036;-67
2023/08/11 02:16:12;;;;;;;27.65;3.50;;;;;;;16.13;100.00;101404.56;5084195;28;20502;-66
2023/08/11 02:18:38;;;;;;;23.35;3.42;;;;;;;16.16;100.00;101417.69;5085013;28;20038;-67
2023/08/11 02:21:03;;;;;;;26.77;3.38;;;;;;;16.19;100.00;101433.53;5082510;28;20032;-66
2023/08/11 02:23:29;;;;;;;21.95;3.20;;;;;;;16.25;100.00;101424.50;5065384;28;20028;-67
2023/08/11 02:25:54;;;;;;;26.65;4.13;;;;;;;16.26;100.00;101433.47;5101055;28;20051;-66
2023/08/11 02:28:19;;;;;;;24.30;3.38;;;;;;;16.26;100.00;101439.75;5101301;28;20028;-67
2023/08/11 02:30:46;;;;;;;28.50;3.58;;;;;;;16.28;100.00;101434.09;5099898;28;20035;-67
2023/08/11 02:33:12;;;;;;;25.13;3.58;;;;;;;16.20;100.00;101417.03;5082236;28;20024;-67
2023/08/11 02:35:38;;;;;;;26.80;3.03;;;;;;;16.30;100.00;101424.66;5081386;28;20031;-67
2023/08/11 02:38:04;;;;;;;22.13;3.10;;;;;;;15.94;100.00;101368.38;5077931;28;20056;-66
2023/08/11 02:40:30;;;;;;;22.50;2.95;;;;;;;16.35;100.00;101430.25;5075665;28;20020;-67
2023/08/11 02:42:57;;;;;;;27.52;3.17;;;;;;;16.35;100.00;101430.25;5076114;28;20421;-67
2023/08/11 02:45:23;;;;;;;25.60;3.10;;;;;;;16.34;100.00;101430.50;5077211;28;20059;-66
2023/08/11 02:47:50;;;;;;;18.13;2.65;;;;;;;16.24;100.00;101417.41;5076006;28;20024;-67
2023/08/11 02:50:17;;;;;;;19.88;3.10;;;;;;;16.27;100.00;101427.00;5074478;28;20121;-66
2023/08/11 02:52:43;;;;;;;15.68;2.22;;;;;;;16.13;100.00;101407.28;5076516;28;20526;-67
2023/08/11 02:55:09;;;;;;;26.67;3.47;;;;;;;16.24;100.00;101427.44;5074959;28;20058;-67
2023/08/11 02:57:35;;;;;;;16.58;3.05;;;;;;;16.25;100.00;101438.06;5076801;28;20036;-66
2023/08/11 03:00:04;;;;;;;16.88;2.83;;;;;;;16.18;100.00;101437.28;5088232;28;20063;-66
2023/08/11 03:02:29;;;;;;;19.92;2.50;;;;;;;16.12;100.00;101438.19;5078176;28;20025;-67
2023/08/11 03:04:54;;;;;;;23.65;2.60;;;;;;;16.07;100.00;101432.59;5075940;28;20039;-66
2023/08/11 03:07:20;;;;;;;18.17;3.00;;;;;;;16.02;100.00;101435.13;5079244;28;20058;-66
2023/08/11 03:09:45;;;;;;;18.25;2.60;;;;;;;16.01;100.00;101436.19;5078542;28;20509;-67
2023/08/11 03:12:10;;;;;;;22.17;3.22;;;;;;;15.96;100.00;101428.72;5082555;28;20024;-67
2023/08/11 03:14:39;;;;;;;18.63;2.28;;;;;;;15.95;100.00;101432.44;5092433;28;20131;-66
2023/08/11 03:17:05;;;;;;;16.95;2.63;;;;;;;15.92;100.00;101425.56;5080563;28;20146;-67
2023/08/11 03:19:34;;;;;;;20.10;2.60;;;;;;;15.91;100.00;101420.38;5079804;28;20028;-66
2023/08/11 03:21:59;;;;;;;14.73;2.30;;;;;;;15.92;100.00;101430.16;5078911;28;20032;-67
2023/08/11 03:24:25;;;;;;;16.48;2.20;;;;;;;15.87;100.00;101436.28;5080641;28;20025;-66
2023/08/11 03:26:50;;;;;;;16.67;2.28;;;;;;;15.87;100.00;101436.28;5085340;28;20450;-67
2023/08/11 03:29:16;;;;;;;21.13;2.20;;;;;;;15.86;100.00;101429.19;5100318;28;20036;-67
2023/08/11 03:31:41;;;;;;;16.98;2.50;;;;;;;15.87;100.00;101444.41;5100195;28;20044;-67
2023/08/11 03:34:07;;;;;;;16.00;2.28;;;;;;;15.89;100.00;101442.31;5100523;28;20058;-66
2023/08/11 03:36:33;;;;;;;21.58;2.20;;;;;;;15.79;100.00;101420.22;5099851;28;20020;-66
2023/08/11 03:38:58;;;;;;;15.95;2.20;;;;;;;15.92;100.00;101433.72;5098968;28;20035;-66
2023/08/11 03:41:24;;;;;;;14.48;2.20;;;;;;;15.96;100.00;101437.69;5099859;28;20024;-67
2023/08/11 03:43:49;;;;;;;13.30;2.38;;;;;;;16.02;100.00;101438.66;5098661;28;20133;-65
2023/08/11 03:46:14;;;;;;;13.75;2.33;;;;;;;16.06;100.00;101433.63;5098727;28;20089;-66
2023/08/11 03:48:41;;;;;;;13.50;2.05;;;;;;;16.10;100.00;101437.59;5097102;28;20056;-66
2023/08/11 03:51:07;;;;;;;15.13;2.17;;;;;;;16.13;100.00;101440.69;5075318;28;20116;-67
2023/08/11 03:53:33;;;;;;;16.20;2.30;;;;;;;16.12;100.00;101433.56;5100473;28;20064;-68
2023/08/11 03:55:59;;;;;;;15.77;2.13;;;;;;;16.25;100.00;101439.97;5083758;28;20096;-66
2023/08/11 03:58:24;;;;;;;12.60;1.90;;;;;;;16.31;100.00;101447.22;5062202;28;20059;-66
2023/08/11 04:00:50;;;;;;;10.93;1.50;;;;;;;16.34;100.00;101433.22;5061680;28;20088;-67
2023/08/11 04:03:15;;;;;;;11.20;1.95;;;;;;;17.02;100.00;101433.19;5088667;28;20074;-66
2023/08/11 04:05:41;;;;;;;13.90;1.80;;;;;;;17.91;100.00;101457.19;5098948;28;20103;-66
2023/08/11 04:08:07;;;;;;;13.85;2.08;;;;;;;18.38;100.00;101433.63;5100152;28;20020;-67
2023/08/11 04:10:35;;;;;;;15.52;2.00;;;;;;;19.02;100.00;101452.81;5099070;28;20075;-67
2023/08/11 04:13:00;;;;;;;16.17;2.20;;;;;;;19.40;97.47;101446.81;5096525;28;20028;-67
2023/08/11 04:15:26;;;;;;;16.42;2.10;;;;;;;19.92;94.77;101448.63;5099332;28;20486;-66
2023/08/11 04:17:52;;;;;;;10.70;1.70;;;;;;;20.32;91.67;101414.88;5082402;28;20043;-67
2023/08/11 04:20:17;;;;;;;11.13;1.77;;;;;;;20.75;88.98;101444.25;5098850;28;20021;-67
2023/08/11 04:22:43;;;;;;;15.65;2.40;;;;;;;21.07;86.03;101443.59;5080277;28;20037;-69
2023/08/11 04:25:11;;;;;;;11.32;1.92;;;;;;;20.98;85.74;101443.22;5062391;28;20028;-68
2023/08/11 04:27:39;;;;;;;11.93;1.80;;;;;;;21.49;83.02;101443.88;5079430;28;20039;-67
2023/08/11 04:30:05;;;;;;;9.85;1.70;;;;;;;21.22;83.35;101448.44;5077282;28;20027;-67
2023/08/11 04:32:31;;;;;;;9.15;1.45;;;;;;;20.50;87.42;101457.53;5083314;28;20080;-71
2023/08/11 04:34:57;;;;;;;8.43;1.60;;;;;;;21.36;82.98;101449.75;5057529;28;20057;-67
2023/08/11 04:37:22;;;;;;;12.65;1.70;;;;;;;20.45;86.35;101461.00;5075683;28;20487;-67
2023/08/11 04:39:48;;;;;;;10.65;1.80;;;;;;;21.46;82.00;101452.63;5074204;28;20028;-67
2023/08/11 04:42:13;;;;;;;8.35;1.35;;;;;;;22.20;76.90;101451.19;5075765;28;20033;-67
2023/08/11 04:44:39;;;;;;;10.80;1.80;;;;;;;22.65;73.96;101452.63;5075353;28;20036;-67
2023/08/11 04:47:04;;;;;;;9.52;1.60;;;;;;;22.85;71.70;101430.81;5075686;28;20033;-66
2023/08/11 04:49:32;;;;;;;12.20;1.98;;;;;;;23.20;70.10;101457.63;5082353;28;20057;-67
2023/08/11 04:51:58;;;;;;;12.15;1.60;;;;;;;23.53;68.87;101454.72;5065513;28;20147;-67
2023/08/11 04:54:23;;;;;;;8.52;1.27;;;;;;;23.67;67.62;101455.84;5082181;28;20059;-67
2023/08/11 04:56:50;;;;;;;6.88;1.38;;;;;;;23.94;66.14;101454.84;5080053;28;20058;-67
2023/08/11 04:59:16;;;;;;;9.57;1.52;;;;;;;24.08;64.85;101447.72;5080968;28;20052;-67
2023/08/11 05:01:41;;;;;;;8.27;1.27;;;;;;;23.79;65.93;101452.91;5080377;28;20486;-68
2023/08/11 05:04:08;;;;;;;8.95;1.65;;;;;;;22.94;70.82;101444.88;5080615;28;20025;-67
2023/08/11 05:06:34;;;;;;;9.02;1.83;;;;;;;23.74;66.97;101456.47;5079822;28;20052;-67
2023/08/11 05:08:59;;;;;;;7.60;1.30;;;;;;;23.31;67.89;101455.78;5079264;28;20082;-68
2023/08/11 05:11:26;;;;;;;10.00;1.85;;;;;;;22.17;74.29;101463.50;5079199;28;20033;-68
2023/08/11 05:13:52;;;;;;;8.52;1.50;;;;;;;22.06;75.01;101467.22;5079009;28;20032;-67
2023/08/11 05:16:17;;;;;;;7.30;1.50;;;;;;;21.33;78.59;101448.31;5081777;28;20028;-68
2023/08/11 05:18:43;;;;;;;10.65;1.50;;;;;;;20.75;81.90;101446.16;5062771;28;20043;-69
2023/08/11 05:21:08;;;;;;;8.98;1.83;;;;;;;20.53;84.37;101459.78;5059263;28;20111;-67
2023/08/11 05:23:34;;;;;;;9.50;1.60;;;;;;;20.34;85.10;101459.19;5077756;28;20119;-66
2023/08/11 05:25:59;;;;;;;7.95;1.65;;;;;;;20.05;86.91;101467.44;5094020;28;20467;-67
2023/08/11 05:28:24;;;;;;;6.25;1.20;;;;;;;19.90;86.93;101469.88;5094010;28;20072;-67
2023/08/11 05:30:50;;;;;;;11.35;1.48;;;;;;;20.48;83.88;101465.97;5098900;28;20039;-68
2023/08/11 05:33:16;;;;;;;8.32;1.45;;;;;;;20.13;85.08;101467.03;5082926;28;20039;-73
2023/08/11 05:35:41;;;;;;;6.13;1.48;;;;;;;19.84;86.87;101473.63;5087190;28;20043;-72
2023/08/11 05:38:07;;;;;;;9.13;1.45;;;;;;;19.63;87.81;101461.41;5084277;28;20025;-69
2023/08/11 05:40:32;;;;;;;7.57;1.30;;;;;;;19.67;88.20;101474.38;5083658;28;20112;-68
2023/08/11 05:42:57;;;;;;;9.57;1.80;;;;;;;19.68;88.62;101473.31;5082676;28;20043;-67
2023/08/11 05:45:23;;;;;;;9.57;1.52;;;;;;;19.48;88.60;101445.59;5082190;28;20028;-69
2023/08/11 05:47:49;;;;;;;7.55;1.63;;;;;;;19.58;88.88;101475.81;5081888;28;20032;-68
2023/08/11 05:50:15;;;;;;;10.60;1.90;;;;;;;19.63;88.85;101473.19;5063913;28;20074;-69
2023/08/11 05:52:40;;;;;;;10.45;2.00;;;;;;;19.61;89.05;101479.97;5086574;28;20028;-71
2023/08/11 05:55:06;;;;;;;8.50;1.50;;;;;;;19.47;89.13;101454.84;5094726;28;20119;-70
2023/08/11 05:57:32;;;;;;;8.18;1.63;;;;;;;19.63;89.18;101486.00;5097569;28;20670;-69
2023/08/11 05:59:57;;;;;;;11.00;1.75;;;;;;;19.83;88.21;101485.59;5098738;28;20115;-67
2023/08/11 06:02:23;;;;;;;7.60;1.70;;;;;;;19.66;87.93;101486.38;5097462;28;20053;-69
2023/08/11 06:04:50;;;;;;;10.95;1.48;;;;;;;19.50;87.93;101468.00;5090188;28;20032;-71
2023/08/11 06:07:15;;;;;;;9.73;1.58;;;;;;;19.51;88.05;101477.84;5085597;28;20033;-71
2023/08/11 06:09:40;;;;;;;12.35;2.08;;;;;;;19.47;88.02;101491.16;5074523;28;20372;-70
2023/08/11 06:12:06;;;;;;;9.40;1.70;;;;;;;19.55;87.37;101489.13;5078124;28;20062;-69
2023/08/11 06:14:31;;;;;;;12.10;1.98;;;;;;;19.67;86.67;101493.50;5079239;28;20024;-69
2023/08/11 06:16:57;;;;;;;13.60;1.73;;;;;;;19.67;86.23;101482.59;5080045;28;20068;-71
2023/08/11 06:19:24;;;;;;;7.70;2.30;;;;;;;19.71;85.87;101485.66;5079509;28;20039;-68
2023/08/11 06:21:49;;;;;;;8.98;1.38;;;;;;;19.53;85.77;101478.44;5078757;28;20052;-69
2023/08/11 06:24:15;;;;;;;8.23;1.45;;;;;;;19.85;85.02;101486.19;5062120;28;20356;-68
2023/08/11 06:26:41;;;;;;;11.95;1.73;;;;;;;20.01;84.00;101479.94;5075391;28;20068;-67
2023/08/11 06:29:06;;;;;;;8.43;1.70;;;;;;;20.25;82.72;101471.59;5088054;28;20036;-70
2023/08/11 06:31:32;;;;;;;7.35;1.55;;;;;;;20.30;82.31;101479.91;5084594;28;20041;-67
2023/08/11 06:33:57;;;;;;;11.30;2.50;;;;;;;19.84;83.14;101479.06;5080719;28;20029;-68
2023/08/11 06:36:23;;;;;;;14.88;2.03;;;;;;;19.89;83.10;101488.16;5078889;28;20112;-68
2023/08/11 06:38:48;;;;;;;12.65;2.45;;;;;;;20.14;82.29;101478.81;5078011;28;20502;-68
2023/08/11 06:41:14;;;;;;;13.52;2.00;;;;;;;20.27;81.14;101475.75;5078451;28;20120;-68
2023/08/11 06:43:39;;;;;;;13.20;2.35;;;;;;;20.04;82.11;101481.34;5078537;28;20048;-68
2023/08/11 06:46:05;;;;;;;9.85;1.70;;;;;;;20.00;82.08;101493.81;5078348;28;20042;-67
2023/08/11 06:48:31;;;;;;;9.95;2.47;;;;;;;20.08;81.74;101498.91;5059778;28;20036;-67
2023/08/11 06:50:57;;;;;;;11.43;1.70;;;;;;;19.96;81.66;101479.81;5078308;28;20040;-68
2023/08/11 06:53:22;;;;;;;9.07;1.83;;;;;;;20.04;81.59;101498.56;5077943;28;20090;-68
2023/08/11 06:55:47;;;;;;;10.05;2.08;;;;;;;19.93;81.68;101497.56;5078719;28;20084;-68
2023/08/11 06:58:13;;;;;;;9.20;1.77;;;;;;;20.03;81.24;101507.00;5078572;28;20032;-67
2023/08/11 07:00:38;;;;;;;8.15;2.00;;;;;;;20.11;80.84;101501.97;5076526;28;20051;-68
2023/08/11 07:03:04;;;;;;;12.48;2.28;;;;;;;20.23;80.36;101507.38;5077518;28;20078;-68
2023/08/11 07:05:30;;;;;;;12.45;1.95;;;;;;;20.67;78.91;101502.13;5078140;28;20078;-70
2023/08/11 07:07:55;;;;;;;14.75;1.98;;;;;;;20.86;78.12;101484.38;5076463;28;20032;-68
2023/08/11 07:10:21;;;;;;;10.05;1.85;;;;;;;20.94;77.25;101506.91;5095845;28;20020;-68
2023/08/11 07:12:46;;;;;;;9.27;1.75;;;;;;;20.94;76.20;101512.38;5063250;28;20477;-68
2023/08/11 07:15:12;;;;;;;10.43;1.65;;;;;;;20.94;75.39;101507.72;5081223;28;20047;-68
2023/08/11 07:17:37;;;;;;;7.95;1.70;;;;;;;21.02;74.17;101514.66;5097227;28;20028;-67
2023/08/11 07:20:03;;;;;;;11.35;1.70;;;;;;;20.79;74.52;101515.69;5097212;28;20028;-67
2023/08/11 07:22:29;;;;;;;9.57;1.55;;;;;;;20.68;74.83;101509.25;5098567;28;20027;-67
2023/08/11 07:24:54;;;;;;;7.88;1.40;;;;;;;20.64;75.25;101510.81;5097719;28;20028;-68
2023/08/11 07:27:19;;;;;;;8.38;1.20;;;;;;;20.45;75.33;101518.41;5094021;28;20456;-68
2023/08/11 07:29:45;;;;;;;8.93;2.25;;;;;;;20.38;74.84;101525.94;5091380;28;20036;-68
2023/08/11 07:32:11;;;;;;;7.22;1.60;;;;;;;20.76;73.47;101521.66;5085954;28;20055;-67
2023/08/11 07:34:38;;;;;;;7.07;1.88;;;;;;;21.14;71.94;101520.06;5054800;28;20105;-68
2023/08/11 07:37:04;;;;;;;7.07;1.60;;;;;;;21.02;71.36;101518.22;5080544;28;20081;-67
2023/08/11 07:39:30;;;;;;;7.88;1.42;;;;;;;21.00;71.47;101525.06;5090465;28;20051;-67
2023/08/11 07:42:02;;;;;;;10.40;1.88;;;;;;;21.09;71.28;101523.53;5078741;28;20024;-68
2023/08/11 07:44:32;;;;;;;5.88;1.25;;;;;;;21.22;70.63;101511.38;5082648;28;20036;-67
2023/08/11 07:46:57;;;;;;;9.43;1.35;;;;;;;21.38;70.18;101518.75;5078994;28;20040;-67
2023/08/11 07:49:24;;;;;;;9.82;1.65;;;;;;;21.27;70.71;101515.03;5076479;28;20048;-70
2023/08/11 07:51:50;;;;;;;10.25;1.70;;;;;;;21.24;71.23;101533.88;5076941;28;20372;-67
2023/08/11 07:54:16;;;;;;;11.98;1.88;;;;;;;21.30;71.31;101527.38;5076424;28;20093;-68
2023/08/11 07:56:43;;;;;;;10.40;1.73;;;;;;;21.29;71.14;101506.56;5077350;28;20090;-67
2023/08/11 07:59:09;;;;;;;10.27;2.10;;;;;;;21.46;70.68;101526.53;5075133;28;20483;-67
2023/08/11 08:01:36;;;;;;;11.90;1.77;;;;;;;21.19;71.35;101514.63;5074399;28;20044;-70
2023/08/11 08:04:03;;;;;;;12.93;2.20;;;;;;;21.14;71.89;101525.53;5056370;28;20028;-68
2023/08/11 08:06:32;;;;;;;10.60;1.80;;;;;;;21.25;71.28;101521.84;5075470;28;20457;-67
2023/08/11 08:08:57;;;;;;;10.27;1.70;;;;;;;21.62;69.39;101523.97;5072481;28;20024;-70
2023/08/11 08:11:23;;;;;;;7.40;1.40;;;;;;;21.78;68.74;101525.81;5074789;28;20055;-68
2023/08/11 08:13:48;;;;;;;11.20;2.20;;;;;;;21.92;67.37;101532.56;5075603;28;20032;-68
2023/08/11 08:16:14;;;;;;;7.50;1.63;;;;;;;21.97;66.46;101529.06;5077114;28;20032;-67
2023/08/11 08:18:39;;;;;;;7.68;1.55;;;;;;;22.03;65.92;101533.50;5060011;28;20028;-67
2023/08/11 08:21:05;;;;;;;8.32;1.45;;;;;;;22.00;65.89;101545.81;5078007;28;20043;-68
2023/08/11 08:23:31;;;;;;;8.77;1.48;;;;;;;22.09;65.48;101546.19;5077336;28;20036;-68
2023/08/11 08:25:56;;;;;;;10.48;1.58;;;;;;;21.84;66.32;101537.66;5077919;28;20028;-67
2023/08/11 08:28:22;;;;;;;8.73;1.70;;;;;;;21.60;66.85;101545.34;5077774;28;20044;-68
2023/08/11 08:30:47;;;;;;;11.95;2.30;;;;;;;21.78;66.48;101545.00;5076274;28;20029;-67
2023/08/11 08:33:13;;;;;;;9.60;1.63;;;;;;;21.62;67.12;101540.41;5059048;28;20036;-68
2023/08/11 08:35:38;;;;;;;9.43;2.20;;;;;;;21.27;68.41;101549.78;5075043;28;20024;-67
2023/08/11 08:38:05;;;;;;;10.13;2.03;;;;;;;21.05;68.07;101550.56;5075446;28;20032;-67
2023/08/11 08:40:31;;;;;;;10.25;1.63;;;;;;;21.01;68.41;101545.84;5077505;28;20373;-67
2023/08/11 08:42:57;;;;;;;9.75;1.73;;;;;;;21.04;68.65;101551.66;5076944;28;20115;-68
2023/08/11 08:45:24;;;;;;;7.82;1.95;;;;;;;21.10;68.77;101566.25;5063531;28;20067;-67
2023/08/11 08:47:52;;;;;;;8.85;2.17;;;;;;;21.16;68.49;101558.91;5076821;28;20041;-67
2023/08/11 08:50:18;;;;;;;11.85;2.13;;;;;;;21.31;68.42;101568.19;5079519;28;20052;-67
2023/08/11 08:52:44;;;;;;;7.25;1.50;;;;;;;21.26;67.78;101559.91;5080669;28;20078;-68
2023/08/11 08:55:09;;;;;;;8.23;1.45;;;;;;;21.01;67.37;101565.84;5081143;28;20096;-70
2023/08/11 08:57:35;;;;;;;5.95;1.30;;;;;;;21.06;66.40;101567.84;5080723;28;20071;-68
2023/08/11 09:00:00;;;;;;;8.05;1.50;;;;;;;21.29;65.38;101575.00;5082114;28;20021;-68
2023/08/11 09:02:28;;;;;;;10.35;1.35;;;;;;;21.29;65.14;101573.09;5063114;28;20117;-68
2023/08/11 09:04:54;;;;;;;9.73;2.33;;;;;;;21.38;65.52;101579.00;5080749;28;20386;-67
2023/08/11 09:07:20;;;;;;;7.70;1.63;;;;;;;21.38;64.66;101581.72;5080037;28;20093;-67
2023/08/11 09:09:45;;;;;;;12.05;1.92;;;;;;;21.45;64.05;101587.84;5080700;28;20039;-68
2023/08/11 09:12:11;;;;;;;7.38;1.50;;;;;;;21.39;64.16;101571.59;5079322;28;20107;-67
2023/08/11 09:14:39;;;;;;;9.73;1.73;;;;;;;21.37;65.11;101585.56;5081536;28;20028;-68
2023/08/11 09:17:05;;;;;;;8.20;1.40;;;;;;;21.43;64.36;101592.75;5079919;28;20384;-68
2023/08/11 09:19:31;;;;;;;7.65;1.40;;;;;;;21.54;63.49;101589.06;5080319;28;20040;-68
2023/08/11 09:21:56;;;;;;;7.15;1.45;;;;;;;21.68;62.36;101577.75;5082010;28;20036;-67
2023/08/11 09:24:23;;;;;;;7.43;1.40;;;;;;;21.78;61.55;101586.91;5080548;28;20028;-67
2023/08/11 09:26:49;;;;;;;9.10;1.30;;;;;;;21.53;60.89;101592.91;5081521;28;20036;-68
2023/08/11 09:29:18;;;;;;;9.75;1.92;;;;;;;21.41;60.49;101570.28;5080236;28;20028;-68
2023/08/11 09:31:54;;;;;;;6.05;1.38;;;;;;;21.56;60.34;101592.41;5080197;28;20021;-70
2023/08/11 09:34:20;;;;;;;7.28;1.33;;;;;;;21.64;60.09;101580.16;5079981;28;20141;-70
2023/08/11 09:36:48;;;;;;;7.53;1.58;;;;;;;21.80;60.42;101590.22;5079506;28;20024;-69
2023/08/11 09:39:14;;;;;;;8.02;1.45;;;;;;;21.76;60.54;101569.91;5080763;28;20095;-69
2023/08/11 09:41:44;;;;;;;7.10;1.30;;;;;;;22.18;59.74;101587.66;5078849;28;20020;-70
2023/08/11 09:44:14;;;;;;;14.07;1.67;;;;;;;22.32;59.33;101593.56;5086932;28;20029;-70
2023/08/11 09:46:40;;;;;;;6.90;1.70;;;;;;;22.30;59.59;101593.84;5086656;28;20075;-70
2023/08/11 09:49:06;;;;;;;8.57;1.48;;;;;;;22.52;59.16;101602.84;5080583;28;20090;-70
2023/08/11 09:51:34;;;;;;;7.50;1.75;;;;;;;22.59;58.23;101605.38;5078749;28;20036;-69
2023/08/11 09:54:06;;;;;;;4.75;1.17;;;;;;;22.51;57.79;101601.16;5080709;28;20020;-69
2023/08/11 09:56:40;;;;;;;7.20;1.67;;;;;;;22.31;58.98;101603.72;5079782;28;20133;-70
2023/08/11 09:59:11;;;;;;;8.37;1.50;;;;;;;22.26;59.20;101596.28;5078495;28;20394;-73
2023/08/11 10:01:37;;;;;;;5.75;1.38;;;;;;;22.40;59.73;101590.38;5078216;28;20017;-70
2023/08/11 10:04:07;;;;;;;7.60;1.55;;;;;;;22.52;59.34;101594.63;5077982;28;20107;-71
2023/08/11 10:06:36;;;;;;;6.97;1.85;;;;;;;22.45;58.67;101590.41;5078997;28;20017;-69
2023/08/11 10:09:03;;;;;;;8.23;1.20;;;;;;;22.34;59.16;101600.47;5077890;28;20025;-70
2023/08/11 10:11:33;;;;;;;7.78;1.50;;;;;;;22.42;58.78;101600.00;5077608;28;20040;-70
2023/08/11 10:14:02;;;;;;;8.32;1.63;;;;;;;22.43;58.90;101595.34;5080367;28;20075;-69
2023/08/11 10:16:28;;;;;;;7.28;1.50;;;;;;;22.43;58.70;101598.91;5077346;28;20071;-69
2023/08/11 10:18:55;;;;;;;10.98;1.63;;;;;;;22.22;58.61;101605.28;5078733;28;20032;-70
2023/08/11 10:21:22;;;;;;;9.40;1.70;;;;;;;22.15;58.61;101604.59;5079410;28;20474;-70
2023/08/11 10:23:48;;;;;;;8.48;1.85;;;;;;;21.93;59.22;101601.91;5077654;28;20036;-69
2023/08/11 10:26:13;;;;;;;12.13;1.90;;;;;;;21.74;60.24;101599.47;5078777;28;20028;-69
2023/08/11 10:28:39;;;;;;;8.60;1.50;;;;;;;21.76;60.30;101610.19;5077594;28;20070;-70
2023/08/11 10:31:05;;;;;;;7.88;1.75;;;;;;;21.75;60.69;101590.16;5076559;28;20033;-67
2023/08/11 10:33:31;;;;;;;9.38;1.85;;;;;;;21.81;60.81;101572.69;5078484;28;20036;-67
2023/08/11 10:35:59;;;;;;;7.55;1.73;;;;;;;21.98;60.45;101566.31;5077318;28;20123;-69
2023/08/11 10:38:29;;;;;;;8.60;1.50;;;;;;;22.37;59.56;101569.78;5078662;28;20024;-69
2023/08/11 10:41:07;;;;;;;9.98;1.75;;;;;;;22.48;58.92;101598.97;5077426;28;20090;-69
2023/08/11 10:43:38;;;;;;;9.15;1.77;;;;;;;22.49;58.62;101602.53;5077950;28;20040;-69
2023/08/11 10:46:26;;;;;;;7.78;1.48;;;;;;;22.46;58.16;101606.63;5077683;28;20024;-68
2023/08/11 10:49:18;;;;;;;7.65;1.50;;;;;;;22.29;57.99;101611.38;5083470;28;20140;-68
2023/08/11 10:51:44;;;;;;;6.00;1.38;;;;;;;22.35;57.11;101615.00;5086645;28;20089;-69
2023/08/11 10:54:23;;;;;;;7.28;1.45;;;;;;;22.35;57.10;101615.84;5076871;28;20479;-69
2023/08/11 10:56:51;;;;;;;8.57;2.00;;;;;;;22.08;56.98;101615.75;5078153;28;20073;-69
2023/08/11 10:59:23;;;;;;;8.35;1.45;;;;;;;22.26;56.65;101622.88;5078291;28;20031;-69
2023/08/11 11:01:51;;;;;;;6.68;1.83;;;;;;;22.42;56.48;101608.22;5078817;28;20028;-69
2023/08/11 11:04:19;;;;;;;9.43;1.50;;;;;;;22.64;56.53;101618.31;5078504;28;20036;-69
2023/08/11 11:06:46;;;;;;;6.63;1.70;;;;;;;22.91;55.72;101616.38;5076955;28;20070;-69
2023/08/11 11:09:14;;;;;;;7.40;1.55;;;;;;;23.02;54.83;101614.56;5077983;28;20514;-70
2023/08/11 11:11:39;;;;;;;6.68;1.70;;;;;;;22.86;53.74;101604.50;5077421;28;20483;-67
2023/08/11 11:14:11;;;;;;;6.85;1.30;;;;;;;23.01;54.06;101623.03;5076713;28;20043;-69